Time;durP1;ratioP1;P1;durP2;ratioP2;P2;SDS_P1;SDS_P2;PMS_P1;PMS_P2;Temp;Humidity;BMP_temperature;BMP_pressure;BME280_temperature;BME280_humidity;BME280_pressure;Samples;Min_cycle;Max_cycle;Signal;HPM_P1;HPM_P2
2022/03/17 00:00:26;;;;;;;0.83;0.80;;;;;;;6.89;100.00;95902.50;5133291;27;20501;-52
2022/03/17 00:02:54;;;;;;;0.70;0.70;;;;;;;6.81;100.00;95898.41;5132989;27;20460;-52
2022/03/17 00:05:23;;;;;;;0.53;0.53;;;;;;;7.22;100.00;95892.13;5133331;27;20503;-52
2022/03/17 00:07:51;;;;;;;0.40;0.40;;;;;;;7.47;100.00;95889.97;5132941;27;20509;-52
2022/03/17 00:10:22;;;;;;;0.30;0.20;;;;;;;7.77;100.00;95897.63;5132872;27;20510;-52
2022/03/17 00:12:50;;;;;;;0.30;0.20;;;;;;;7.91;98.11;95895.50;5132962;27;20514;-52
2022/03/17 00:15:18;;;;;;;0.97;0.97;;;;;;;7.90;95.55;95893.91;5133105;28;20473;-52
2022/03/17 00:17:47;;;;;;;0.40;0.30;;;;;;;7.80;97.81;95899.81;5132915;28;20442;-52
2022/03/17 00:20:15;;;;;;;0.50;0.30;;;;;;;8.07;93.76;95895.53;5132875;28;20483;-52
2022/03/17 00:22:44;;;;;;;0.40;0.40;;;;;;;8.01;94.71;95879.84;5132903;27;20513;-52
2022/03/17 00:25:12;;;;;;;8.13;0.80;;;;;;;8.10;93.96;95902.97;5132926;28;20462;-52
2022/03/17 00:27:42;;;;;;;0.30;0.20;;;;;;;7.49;100.00;95901.09;5133204;27;20427;-52
2022/03/17 00:30:12;;;;;;;0.40;0.40;;;;;;;7.88;97.09;95888.88;5132704;28;20462;-52
2022/03/17 00:32:40;;;;;;;0.30;0.20;;;;;;;8.00;94.29;95889.59;5132812;28;20426;-52
2022/03/17 00:37:56;;;;;;;0.30;0.20;;;;;;;8.00;96.02;95894.06;5137141;27;20438;-52
2022/03/17 00:40:24;;;;;;;0.30;0.20;;;;;;;7.96;97.34;95892.97;5136998;27;20419;-52
2022/03/17 00:42:55;;;;;;;0.40;0.30;;;;;;;7.67;98.98;95893.00;5137121;27;20430;-52
2022/03/17 00:45:25;;;;;;;0.50;0.30;;;;;;;7.88;97.81;95883.59;5136820;27;20422;-52
2022/03/17 00:47:53;;;;;;;0.33;0.30;;;;;;;8.12;93.82;95873.72;5137042;27;20426;-52
2022/03/17 00:50:22;;;;;;;0.70;0.70;;;;;;;7.88;97.92;95885.44;5136588;27;20468;-52
2022/03/17 00:52:51;;;;;;;0.63;0.63;;;;;;;7.11;99.71;95782.25;5136801;27;20505;-52
2022/03/17 00:55:19;;;;;;;0.70;0.70;;;;;;;7.42;100.00;95878.53;5136549;27;20438;-52
2022/03/17 00:57:48;;;;;;;0.40;0.33;;;;;;;7.54;100.00;95890.63;5136655;27;20441;-52
2022/03/17 01:00:21;;;;;;;1.13;1.13;;;;;;;7.32;100.00;95886.25;5136448;27;20434;-52
2022/03/17 01:02:51;;;;;;;0.30;0.20;;;;;;;6.86;100.00;95892.44;5136378;27;20414;-52
2022/03/17 01:05:20;;;;;;;0.30;0.20;;;;;;;7.19;100.00;95895.22;5136587;27;20438;-52
2022/03/17 01:07:50;;;;;;;0.40;0.40;;;;;;;7.25;100.00;95896.94;5136238;27;20916;-52
2022/03/17 01:10:19;;;;;;;0.40;0.27;;;;;;;7.35;100.00;95896.34;5136108;27;20549;-52
2022/03/17 01:12:48;;;;;;;0.30;0.20;;;;;;;7.10;100.00;95890.56;5136205;27;20458;-52
2022/03/17 01:15:19;;;;;;;3.13;0.60;;;;;;;6.84;100.00;95894.50;5136153;27;20469;-52
2022/03/17 01:17:47;;;;;;;0.30;0.20;;;;;;;7.40;100.00;95907.78;5136132;27;20426;-52
2022/03/17 01:20:16;;;;;;;1.17;0.30;;;;;;;7.45;100.00;95909.72;5136066;27;20502;-52
2022/03/17 01:22:44;;;;;;;0.40;0.40;;;;;;;7.46;100.00;95913.97;5136053;27;20505;-52
2022/03/17 01:25:12;;;;;;;0.97;0.40;;;;;;;7.36;100.00;95913.78;5136010;27;20505;-52
2022/03/17 01:27:41;;;;;;;0.83;0.40;;;;;;;7.02;100.00;95916.25;5136081;27;20435;-52
2022/03/17 01:30:10;;;;;;;1.67;1.57;;;;;;;6.64;100.00;95909.88;5135585;27;20418;-52
2022/03/17 01:32:40;;;;;;;0.40;0.40;;;;;;;6.77;100.00;95901.72;5135676;27;20426;-52
2022/03/17 01:35:10;;;;;;;3.10;1.67;;;;;;;6.40;100.00;95896.69;5136001;27;20433;-52
2022/03/17 01:37:39;;;;;;;4.73;1.23;;;;;;;6.23;100.00;95893.16;5135655;27;20950;-52
2022/03/17 01:40:09;;;;;;;0.40;0.40;;;;;;;6.78;100.00;95892.81;5136031;27;20446;-52
2022/03/17 01:42:39;;;;;;;0.40;0.40;;;;;;;7.05;100.00;95901.81;5135576;27;20473;-52
2022/03/17 01:45:10;;;;;;;0.70;0.53;;;;;;;6.85;100.00;95910.09;5135961;27;20430;-52
2022/03/17 01:47:40;;;;;;;2.73;0.57;;;;;;;6.63;100.00;95893.25;5135032;27;20488;-52
2022/03/17 01:50:11;;;;;;;0.57;0.57;;;;;;;6.64;100.00;95881.72;5135782;27;20442;-52
2022/03/17 01:52:40;;;;;;;0.93;0.70;;;;;;;6.92;100.00;95886.25;5135622;27;20954;-52
2022/03/17 01:55:10;;;;;;;0.40;0.40;;;;;;;7.08;100.00;95890.81;5135645;27;20840;-52
2022/03/17 01:57:41;;;;;;;0.40;0.30;;;;;;;6.94;100.00;95900.78;5135154;27;20482;-52
2022/03/17 02:00:13;;;;;;;0.57;0.57;;;;;;;7.09;100.00;95894.22;5135666;27;20503;-52
2022/03/17 02:02:44;;;;;;;0.53;0.53;;;;;;;6.91;100.00;95888.06;5135507;27;20426;-52
2022/03/17 02:05:13;;;;;;;0.50;0.50;;;;;;;6.46;100.00;95926.59;5135591;27;20880;-52
2022/03/17 02:07:43;;;;;;;0.40;0.30;;;;;;;5.41;100.00;95914.19;5134852;27;20509;-52
2022/03/17 02:10:12;;;;;;;0.40;0.40;;;;;;;5.81;100.00;95904.72;5135385;27;20450;-52
2022/03/17 02:15:27;;;;;;;2.40;0.73;;;;;;;6.17;100.00;95911.69;5135047;27;20426;-52
2022/03/17 02:17:57;;;;;;;0.40;0.40;;;;;;;6.43;100.00;95899.91;5135196;27;20515;-51
2022/03/17 02:20:27;;;;;;;0.90;0.50;;;;;;;6.63;100.00;95898.53;5135119;27;20419;-52
2022/03/17 02:25:33;;;;;;;0.50;0.50;;;;;;;6.48;100.00;95914.00;5134903;27;20491;-51
2022/03/17 02:25:52;;;;;;;0.30;0.30;;;;;;;6.05;100.00;95909.03;5135048;27;20438;-52
2022/03/17 02:28:20;;;;;;;0.53;0.53;;;;;;;6.37;100.00;95918.22;5134745;27;20418;-51
2022/03/17 02:30:49;;;;;;;0.53;0.53;;;;;;;6.50;100.00;95927.75;5134508;27;20462;-51
2022/03/17 02:33:18;;;;;;;1.17;1.17;;;;;;;6.42;100.00;95927.28;5134842;27;20525;-51
2022/03/17 02:35:51;;;;;;;0.90;0.80;;;;;;;6.81;100.00;95932.66;5134884;27;21041;-51
2022/03/17 02:38:20;;;;;;;0.50;0.40;;;;;;;7.02;100.00;95934.69;5134557;27;21032;-51
2022/03/17 02:40:52;;;;;;;0.33;0.30;;;;;;;6.45;100.00;95935.53;5134463;27;20458;-52
2022/03/17 02:43:21;;;;;;;0.40;0.30;;;;;;;6.46;100.00;95939.75;5134728;27;20423;-52
2022/03/17 02:45:49;;;;;;;0.80;0.60;;;;;;;6.53;100.00;95927.28;5134390;27;20418;-52
2022/03/17 02:48:18;;;;;;;0.70;0.70;;;;;;;6.28;100.00;95937.22;5133693;27;20926;-51
2022/03/17 02:50:47;;;;;;;0.37;0.37;;;;;;;6.23;100.00;95922.09;5133794;27;20427;-52
2022/03/17 02:53:15;;;;;;;0.40;0.40;;;;;;;6.77;100.00;95938.63;5134508;27;20414;-52
2022/03/17 02:55:44;;;;;;;0.90;0.40;;;;;;;6.92;100.00;95933.69;5134499;27;20919;-52
2022/03/17 02:58:14;;;;;;;0.30;0.20;;;;;;;7.01;100.00;95932.28;5134278;27;20462;-52
2022/03/17 03:00:43;;;;;;;0.40;0.30;;;;;;;7.15;100.00;95936.28;5133331;27;20529;-52
2022/03/17 03:03:16;;;;;;;0.50;0.50;;;;;;;6.95;100.00;95941.94;5134436;27;20877;-52
2022/03/17 03:05:46;;;;;;;0.40;0.40;;;;;;;7.11;100.00;95942.25;5134261;27;20427;-52
2022/03/17 03:08:15;;;;;;;0.30;0.20;;;;;;;7.05;100.00;95941.34;5133712;27;20562;-52
2022/03/17 03:10:44;;;;;;;0.40;0.30;;;;;;;6.80;100.00;95867.84;5133593;27;20430;-52
2022/03/17 03:13:15;;;;;;;0.30;0.20;;;;;;;6.71;100.00;95911.34;5133729;27;20462;-52
2022/03/17 03:15:43;;;;;;;0.87;0.87;;;;;;;6.96;100.00;95929.53;5133682;27;20462;-51
2022/03/17 03:18:12;;;;;;;1.43;1.33;;;;;;;7.24;100.00;95926.97;5133960;27;20462;-51
2022/03/17 03:20:40;;;;;;;1.30;1.13;;;;;;;7.07;100.00;95935.84;5133935;27;20514;-51
2022/03/17 03:23:08;;;;;;;0.50;0.47;;;;;;;7.23;100.00;95935.94;5133461;27;20474;-51
2022/03/17 03:25:37;;;;;;;0.70;0.70;;;;;;;7.30;98.97;95935.78;5133609;27;20511;-51
2022/03/17 03:28:06;;;;;;;0.40;0.30;;;;;;;7.37;99.07;95941.72;5133443;27;20487;-52
2022/03/17 03:30:36;;;;;;;0.40;0.40;;;;;;;7.43;98.72;95940.81;5133462;27;20446;-51
2022/03/17 03:33:07;;;;;;;0.40;0.37;;;;;;;7.12;100.00;95936.75;5133607;27;20486;-53
2022/03/17 03:38:22;;;;;;;0.60;0.30;;;;;;;7.20;100.00;95941.66;5133332;27;20461;-53
2022/03/17 03:40:51;;;;;;;0.70;0.70;;;;;;;7.01;100.00;95934.91;5133413;27;20419;-53
2022/03/17 03:43:20;;;;;;;0.40;0.37;;;;;;;6.73;100.00;95946.16;5133186;27;20431;-50
2022/03/17 03:45:50;;;;;;;0.30;0.20;;;;;;;5.91;100.00;95956.81;5133316;27;20950;-51
2022/03/17 03:48:19;;;;;;;2.67;1.37;;;;;;;5.90;100.00;95958.63;5132899;27;20467;-52
2022/03/17 03:50:47;;;;;;;0.40;0.40;;;;;;;6.09;100.00;95964.66;5133430;27;20509;-52
2022/03/17 03:53:16;;;;;;;0.30;0.20;;;;;;;6.58;100.00;95966.13;5133030;27;20509;-52
2022/03/17 03:55:44;;;;;;;0.30;0.30;;;;;;;6.86;100.00;95968.84;5133414;27;20487;-52
2022/03/17 03:58:13;;;;;;;0.43;0.43;;;;;;;6.95;100.00;95975.38;5132862;27;20494;-52
2022/03/17 04:00:43;;;;;;;0.60;0.60;;;;;;;6.82;100.00;95980.88;5132708;27;20427;-52
2022/03/17 04:03:15;;;;;;;0.70;0.70;;;;;;;6.35;100.00;95986.09;5133022;27;20426;-52
2022/03/17 04:05:44;;;;;;;0.70;0.70;;;;;;;6.62;100.00;95989.13;5132960;27;20434;-52
2022/03/17 04:08:13;;;;;;;0.50;0.50;;;;;;;6.60;100.00;95987.75;5132818;27;20941;-52
2022/03/17 04:10:41;;;;;;;1.87;1.80;;;;;;;6.55;100.00;95979.72;5132658;27;20414;-52
2022/03/17 04:13:09;;;;;;;7.73;0.70;;;;;;;6.28;100.00;95980.13;5132948;27;20582;-51
2022/03/17 04:15:38;;;;;;;2.30;2.20;;;;;;;6.46;100.00;95988.97;5133165;28;20443;-52
2022/03/17 04:18:06;;;;;;;0.60;0.60;;;;;;;6.64;100.00;95994.16;5133085;28;20475;-52
2022/03/17 04:20:36;;;;;;;3.13;2.83;;;;;;;6.79;100.00;95999.78;5132675;28;20423;-53
2022/03/17 04:23:06;;;;;;;0.30;0.30;;;;;;;6.59;100.00;96002.75;5132657;28;20486;-53
2022/03/17 04:25:34;;;;;;;1.53;1.30;;;;;;;6.04;100.00;96009.25;5131700;28;20501;-52
2022/03/17 04:28:04;;;;;;;0.40;0.30;;;;;;;6.06;100.00;96015.09;5132662;28;20419;-52
2022/03/17 04:30:33;;;;;;;0.50;0.50;;;;;;;6.59;100.00;96013.28;5132327;28;20483;-51
2022/03/17 04:33:02;;;;;;;10.90;0.97;;;;;;;6.62;100.00;96017.28;5132402;28;20501;-51
2022/03/17 04:35:31;;;;;;;0.63;0.63;;;;;;;6.93;100.00;96006.44;5132615;28;20419;-53
2022/03/17 04:38:01;;;;;;;0.50;0.50;;;;;;;7.04;100.00;96001.16;5132500;28;20438;-51
2022/03/17 04:40:29;;;;;;;0.60;0.60;;;;;;;6.85;100.00;96004.16;5132870;28;20855;-52
2022/03/17 04:42:58;;;;;;;0.63;0.63;;;;;;;6.97;100.00;95995.22;5132518;27;20447;-52
2022/03/17 04:45:26;;;;;;;0.73;0.73;;;;;;;6.60;100.00;96003.56;5132764;28;20501;-52
2022/03/17 04:47:54;;;;;;;0.93;0.80;;;;;;;6.87;100.00;95988.91;5132774;28;20502;-52
2022/03/17 04:50:23;;;;;;;0.30;0.20;;;;;;;7.21;100.00;96000.47;5132302;28;20459;-52
2022/03/17 04:55:38;;;;;;;1.07;1.07;;;;;;;7.02;100.00;96003.22;5132629;28;20490;-52
2022/03/17 04:58:07;;;;;;;2.70;2.50;;;;;;;7.16;100.00;96008.25;5132412;28;20450;-52
2022/03/17 05:00:35;;;;;;;0.40;0.40;;;;;;;7.27;100.00;96015.34;5131942;28;20514;-52
2022/03/17 05:03:04;;;;;;;1.27;0.70;;;;;;;7.28;100.00;96015.13;5131900;28;20430;-52
2022/03/17 05:05:32;;;;;;;2.30;1.33;;;;;;;7.07;100.00;96020.97;5132182;28;20434;-52
2022/03/17 05:08:01;;;;;;;5.10;1.33;;;;;;;7.26;100.00;96019.03;5131715;28;20974;-52
2022/03/17 05:10:29;;;;;;;0.70;0.70;;;;;;;7.36;100.00;96025.31;5132104;28;20430;-52
2022/03/17 05:13:04;;;;;;;0.30;0.30;;;;;;;6.39;100.00;96037.28;5131660;28;20989;-52
2022/03/17 05:15:34;;;;;;;0.80;0.80;;;;;;;6.15;100.00;96037.41;5132294;28;20426;-53
2022/03/17 05:18:04;;;;;;;0.60;0.60;;;;;;;6.27;100.00;96049.59;5131921;28;20426;-53
2022/03/17 05:20:33;;;;;;;1.70;1.60;;;;;;;5.86;100.00;96046.94;5131715;28;20471;-53
2022/03/17 05:23:05;;;;;;;0.90;0.90;;;;;;;6.02;100.00;96050.78;5133641;27;20419;-52
2022/03/17 05:25:34;;;;;;;0.60;0.60;;;;;;;5.70;100.00;96048.31;5135684;27;20426;-52
2022/03/17 05:28:04;;;;;;;6.03;0.70;;;;;;;5.69;100.00;96049.31;5134015;27;20927;-55
2022/03/17 05:30:33;;;;;;;1.30;1.30;;;;;;;5.99;100.00;96048.59;5133991;27;20454;-52
2022/03/17 05:33:03;;;;;;;1.90;1.20;;;;;;;6.09;100.00;96039.13;5134092;27;20462;-52
2022/03/17 05:35:32;;;;;;;1.00;0.70;;;;;;;5.31;100.00;95919.16;5133725;27;20859;-52
2022/03/17 05:38:03;;;;;;;1.53;1.53;;;;;;;6.71;100.00;96034.34;5133842;27;20509;-52
2022/03/17 05:40:32;;;;;;;1.63;1.03;;;;;;;6.77;100.00;96034.25;5134075;27;20514;-53
2022/03/17 05:43:06;;;;;;;1.13;1.13;;;;;;;6.57;100.00;96040.88;5133493;27;21014;-52
2022/03/17 05:45:35;;;;;;;1.00;0.70;;;;;;;6.47;100.00;96004.56;5132898;27;20906;-53
2022/03/17 05:48:06;;;;;;;0.67;0.67;;;;;;;6.53;100.00;96042.38;5133352;27;20847;-52
2022/03/17 05:50:37;;;;;;;2.13;2.03;;;;;;;6.92;100.00;96039.09;5133295;27;20458;-52
2022/03/17 05:53:06;;;;;;;0.43;0.43;;;;;;;7.04;100.00;96001.16;5134103;27;20458;-52
2022/03/17 05:55:35;;;;;;;3.17;1.40;;;;;;;7.28;100.00;96038.88;5134314;27;20976;-52
2022/03/17 05:58:06;;;;;;;2.30;2.20;;;;;;;7.37;100.00;96036.66;5134113;27;20433;-52
2022/03/17 06:00:35;;;;;;;2.10;2.00;;;;;;;7.49;100.00;96032.97;5134724;27;20787;-52
2022/03/17 06:03:05;;;;;;;1.70;1.60;;;;;;;7.98;100.00;96043.97;5135356;27;20470;-53
2022/03/17 06:05:33;;;;;;;1.57;1.57;;;;;;;8.28;100.00;96044.56;5134767;27;20946;-53
2022/03/17 06:08:02;;;;;;;1.00;1.00;;;;;;;8.37;99.89;96040.53;5135018;27;20475;-53
2022/03/17 06:10:33;;;;;;;0.80;0.80;;;;;;;7.87;99.94;95947.97;5134767;27;20958;-53
2022/03/17 06:13:04;;;;;;;1.20;1.17;;;;;;;8.79;98.30;96044.41;5135109;27;20490;-53
2022/03/17 06:15:35;;;;;;;2.63;2.53;;;;;;;8.80;100.00;96042.56;5134746;27;20832;-53
2022/03/17 06:18:05;;;;;;;2.20;2.10;;;;;;;9.15;96.09;96044.97;5134672;27;20470;-52
2022/03/17 06:20:35;;;;;;;1.07;1.07;;;;;;;9.52;93.30;96048.66;5134390;27;20427;-52
2022/03/17 06:23:06;;;;;;;3.93;2.80;;;;;;;9.33;95.24;96052.63;5134965;27;20438;-52
2022/03/17 06:25:36;;;;;;;1.07;0.97;;;;;;;9.90;92.98;96039.88;5134635;27;20474;-52
2022/03/17 06:28:08;;;;;;;3.90;2.03;;;;;;;9.88;90.39;96034.84;5134670;27;20422;-51
2022/03/17 06:30:38;;;;;;;2.80;2.70;;;;;;;8.67;98.59;96054.25;5134776;27;20439;-51
2022/03/17 06:33:08;;;;;;;4.53;1.53;;;;;;;7.81;100.00;96022.81;5134365;27;20470;-51
2022/03/17 06:35:38;;;;;;;4.80;1.83;;;;;;;7.52;100.00;96045.69;5134319;27;20431;-51
2022/03/17 06:38:08;;;;;;;2.87;1.63;;;;;;;7.50;100.00;96026.66;5134278;27;20407;-51
2022/03/17 06:40:37;;;;;;;1.80;1.70;;;;;;;7.79;100.00;96058.38;5134523;27;20446;-51
2022/03/17 06:43:06;;;;;;;1.33;1.33;;;;;;;7.67;100.00;96011.72;5133903;27;20422;-51
2022/03/17 06:45:35;;;;;;;1.70;1.60;;;;;;;8.50;100.00;96048.13;5133653;27;20946;-51
2022/03/17 06:48:05;;;;;;;1.70;1.60;;;;;;;8.48;100.00;96052.84;5134086;27;20422;-51
2022/03/17 06:50:35;;;;;;;0.87;0.87;;;;;;;9.06;100.00;96052.50;5133693;27;20483;-51
2022/03/17 06:53:04;;;;;;;5.53;1.63;;;;;;;9.64;95.38;96052.00;5134216;27;20454;-51
2022/03/17 06:55:33;;;;;;;1.80;1.70;;;;;;;9.85;91.55;96050.41;5134376;27;20456;-51
2022/03/17 06:58:02;;;;;;;1.87;1.63;;;;;;;9.92;93.14;96049.16;5134064;27;20427;-51
2022/03/17 07:00:30;;;;;;;3.10;2.90;;;;;;;9.49;97.46;96052.59;5133961;27;20462;-51
2022/03/17 07:02:59;;;;;;;3.73;3.20;;;;;;;9.79;98.07;96054.06;5134195;27;20507;-51
2022/03/17 07:05:29;;;;;;;0.63;0.63;;;;;;;10.27;94.62;96058.63;5133737;27;20510;-51
2022/03/17 07:07:57;;;;;;;0.93;0.93;;;;;;;10.27;91.25;96021.53;5133424;27;20463;-51
2022/03/17 07:10:27;;;;;;;1.37;1.33;;;;;;;10.70;89.15;96032.00;5133522;27;21000;-51
2022/03/17 07:12:55;;;;;;;2.40;1.23;;;;;;;10.52;89.37;96046.44;5133383;27;20459;-51
2022/03/17 07:15:23;;;;;;;1.17;1.07;;;;;;;10.88;87.74;96050.16;5132899;27;21213;-51
2022/03/17 07:17:52;;;;;;;6.57;2.30;;;;;;;11.46;82.73;96057.22;5133470;27;20455;-51
2022/03/17 07:20:21;;;;;;;0.90;0.90;;;;;;;11.84;78.99;96056.16;5133529;27;20454;-50
2022/03/17 07:22:51;;;;;;;1.87;1.23;;;;;;;11.44;81.76;96060.16;5133593;27;20450;-51
2022/03/17 07:25:19;;;;;;;2.90;1.90;;;;;;;10.36;88.73;96027.97;5133561;27;20434;-51
2022/03/17 07:27:49;;;;;;;5.70;2.53;;;;;;;10.14;92.33;96073.03;5133192;27;20462;-50
2022/03/17 07:30:19;;;;;;;1.77;1.20;;;;;;;10.39;93.59;96078.63;5133297;27;20863;-50
2022/03/17 07:32:50;;;;;;;1.10;1.00;;;;;;;11.18;85.34;96068.19;5133022;27;20509;-51
2022/03/17 07:35:19;;;;;;;0.43;0.43;;;;;;;12.27;75.33;96078.91;5133155;27;20565;-50
2022/03/17 07:37:47;;;;;;;2.67;2.47;;;;;;;11.82;74.14;96072.34;5132488;27;20469;-50
2022/03/17 07:40:17;;;;;;;8.93;1.97;;;;;;;12.15;74.11;96076.47;5132873;27;20950;-50
2022/03/17 07:42:45;;;;;;;3.10;3.00;;;;;;;12.89;67.02;96071.59;5132962;27;20518;-50
2022/03/17 07:45:14;;;;;;;1.43;1.43;;;;;;;12.21;70.52;96078.09;5132617;27;20517;-50
2022/03/17 07:47:46;;;;;;;1.97;1.87;;;;;;;11.95;72.42;96081.69;5133079;27;20462;-50
2022/03/17 07:50:15;;;;;;;1.37;1.20;;;;;;;12.58;70.47;96076.06;5132752;27;20469;-49
2022/03/17 07:52:44;;;;;;;4.53;1.23;;;;;;;12.74;66.92;96082.22;5132352;27;20434;-49
2022/03/17 07:55:13;;;;;;;5.03;1.77;;;;;;;12.27;69.93;96077.03;5132708;27;20565;-51
2022/03/17 07:57:43;;;;;;;1.23;1.13;;;;;;;13.29;65.29;96076.16;5132781;27;20513;-50
2022/03/17 08:00:12;;;;;;;2.37;1.33;;;;;;;13.91;60.14;96079.22;5132810;27;20434;-51
2022/03/17 08:02:41;;;;;;;3.03;2.43;;;;;;;13.14;62.65;96076.16;5132461;27;20427;-51
2022/03/17 08:05:10;;;;;;;2.50;2.30;;;;;;;13.09;61.71;96010.41;5132582;27;21002;-51
2022/03/17 08:07:40;;;;;;;3.33;3.03;;;;;;;12.31;66.25;96079.97;5132089;27;20502;-51
2022/03/17 08:10:10;;;;;;;1.00;0.90;;;;;;;12.29;66.08;96015.66;5132921;27;20462;-52
2022/03/17 08:12:46;;;;;;;3.50;3.20;;;;;;;12.47;66.88;96086.94;5132877;27;20441;-51
2022/03/17 08:15:15;;;;;;;1.57;1.50;;;;;;;12.22;69.86;96089.53;5132544;27;20993;-51
2022/03/17 08:17:44;;;;;;;2.20;2.10;;;;;;;12.16;71.91;96085.25;5132288;28;20422;-51
2022/03/17 08:20:12;;;;;;;1.40;1.30;;;;;;;12.10;67.77;96010.81;5132698;28;20495;-51
2022/03/17 08:22:42;;;;;;;3.27;1.40;;;;;;;12.58;65.67;96068.09;5132059;28;20434;-51
2022/03/17 08:25:11;;;;;;;4.50;1.10;;;;;;;12.30;67.07;96081.03;5132692;28;20566;-52
2022/03/17 08:27:40;;;;;;;3.37;2.00;;;;;;;12.35;69.66;96079.19;5132407;28;20505;-51
2022/03/17 08:30:11;;;;;;;2.33;2.13;;;;;;;12.41;69.56;96093.31;5132211;28;20492;-51
2022/03/17 08:32:40;;;;;;;1.20;1.20;;;;;;;12.70;70.11;96084.59;5132749;28;20455;-51
2022/03/17 08:35:10;;;;;;;2.87;1.30;;;;;;;12.09;68.12;96022.50;5132581;27;20849;-51
2022/03/17 08:37:42;;;;;;;3.00;1.40;;;;;;;12.73;68.79;96094.72;5132086;28;21009;-49
2022/03/17 08:40:12;;;;;;;1.53;1.40;;;;;;;12.82;68.38;96096.84;5131801;28;20426;-51
2022/03/17 08:42:41;;;;;;;0.40;0.40;;;;;;;12.82;67.35;96095.00;5132062;28;20513;-51
2022/03/17 08:50:45;;;;;;;0.77;0.77;;;;;;;11.58;76.55;96096.88;5132349;28;20415;-51
2022/03/17 08:53:14;;;;;;;5.30;2.53;;;;;;;8.07;76.76;95551.56;5132184;28;20423;-51
2022/03/17 08:55:44;;;;;;;1.53;0.93;;;;;;;11.53;79.17;96105.59;5132287;27;20466;-51
2022/03/17 08:58:13;;;;;;;1.07;1.07;;;;;;;11.56;78.91;96097.09;5133720;27;20965;-51
2022/03/17 09:00:43;;;;;;;0.97;0.93;;;;;;;12.21;75.29;96104.66;5136462;27;20440;-51
2022/03/17 09:03:11;;;;;;;2.10;1.10;;;;;;;12.22;73.51;96103.59;5136413;27;20431;-51
2022/03/17 09:05:41;;;;;;;1.00;0.93;;;;;;;12.22;71.06;96106.25;5136172;27;20439;-50
2022/03/17 09:08:10;;;;;;;0.53;0.50;;;;;;;12.58;67.24;96107.97;5135414;27;20551;-51
2022/03/17 09:10:39;;;;;;;0.80;0.80;;;;;;;13.03;65.23;96111.81;5135296;27;21022;-51
2022/03/17 09:13:09;;;;;;;2.63;2.43;;;;;;;12.97;63.91;96103.00;5135688;27;20435;-51
2022/03/17 09:15:40;;;;;;;2.50;1.20;;;;;;;12.67;67.13;96102.97;5135730;27;20512;-51
2022/03/17 09:18:11;;;;;;;5.30;1.50;;;;;;;12.48;68.21;96107.16;5135977;27;20479;-51
2022/03/17 09:20:41;;;;;;;1.30;1.20;;;;;;;12.74;64.02;96108.81;5135238;27;20926;-51
2022/03/17 09:23:10;;;;;;;1.10;1.03;;;;;;;12.82;65.04;96096.84;5135642;27;20516;-50
2022/03/17 09:25:39;;;;;;;1.60;1.50;;;;;;;12.74;64.21;96106.97;5135567;27;20466;-50
2022/03/17 09:28:07;;;;;;;1.43;1.33;;;;;;;12.77;62.97;96101.09;5135760;27;20713;-50
2022/03/17 09:30:36;;;;;;;2.47;1.87;;;;;;;12.75;60.81;96102.41;5135229;27;20459;-50
2022/03/17 09:33:05;;;;;;;1.73;0.60;;;;;;;12.94;59.23;96102.72;5134974;27;20934;-50
2022/03/17 09:35:35;;;;;;;0.70;0.63;;;;;;;12.87;58.14;96063.09;5135381;27;20478;-50
2022/03/17 09:38:05;;;;;;;6.70;1.07;;;;;;;13.52;54.81;96074.78;5135548;27;20450;-50
2022/03/17 09:40:36;;;;;;;0.73;0.73;;;;;;;13.29;57.72;96100.91;5135685;27;20528;-50
2022/03/17 09:43:21;;;;;;;2.93;0.93;;;;;;;13.36;56.20;96101.44;5134707;27;20487;-50
2022/03/17 09:45:53;;;;;;;1.37;0.70;;;;;;;12.76;54.63;96082.75;5135626;27;20483;-51
2022/03/17 09:48:24;;;;;;;0.50;0.50;;;;;;;13.24;52.85;96110.75;5135039;27;20509;-50
2022/03/17 09:50:58;;;;;;;1.00;1.00;;;;;;;13.54;51.74;96081.44;5135429;27;20434;-50
2022/03/17 09:53:30;;;;;;;0.30;0.30;;;;;;;14.17;48.63;96095.94;5135221;27;20437;-51
2022/03/17 09:55:58;;;;;;;0.40;0.30;;;;;;;14.35;49.68;96095.38;5135161;27;20517;-52
2022/03/17 09:58:27;;;;;;;0.70;0.70;;;;;;;13.06;46.25;95893.84;5135124;27;20450;-51
2022/03/17 10:00:57;;;;;;;0.60;0.50;;;;;;;13.92;47.46;96035.53;5135373;27;20458;-51
2022/03/17 10:03:29;;;;;;;0.60;0.50;;;;;;;12.65;46.19;95879.81;5135007;27;20441;-50
2022/03/17 10:06:02;;;;;;;0.40;0.30;;;;;;;14.74;46.35;96105.31;5135235;27;20449;-51
2022/03/17 10:08:33;;;;;;;0.67;0.40;;;;;;;14.72;46.07;96102.94;5133464;27;20560;-50
2022/03/17 10:11:02;;;;;;;0.93;0.93;;;;;;;13.91;44.98;96084.56;5135000;27;20431;-51
2022/03/17 10:13:31;;;;;;;0.50;0.40;;;;;;;13.82;45.31;96022.25;5134747;27;21009;-51
2022/03/17 10:16:08;;;;;;;0.70;0.30;;;;;;;14.89;43.76;96100.69;5134714;27;20458;-51
2022/03/17 10:18:37;;;;;;;0.53;0.43;;;;;;;15.00;42.69;96098.75;5135082;27;20430;-51
2022/03/17 10:21:10;;;;;;;0.40;0.30;;;;;;;13.82;44.08;96096.84;5134670;27;20463;-51
2022/03/17 10:23:52;;;;;;;0.30;0.20;;;;;;;13.10;45.27;96102.53;5134744;27;20430;-53
2022/03/17 10:26:37;;;;;;;1.63;1.53;;;;;;;13.26;45.75;96105.97;5134859;27;20435;-51
2022/03/17 10:29:08;;;;;;;0.40;0.30;;;;;;;13.35;44.42;96101.72;5134523;27;20434;-51
2022/03/17 10:31:54;;;;;;;0.40;0.30;;;;;;;13.34;45.42;96094.78;5134689;27;20508;-50
2022/03/17 10:34:25;;;;;;;0.40;0.30;;;;;;;13.14;44.25;96106.25;5134533;27;20435;-51
2022/03/17 10:37:07;;;;;;;0.40;0.30;;;;;;;13.38;43.99;96085.22;5134696;27;20557;-51
2022/03/17 10:39:42;;;;;;;0.87;0.30;;;;;;;13.51;43.95;96084.63;5134300;27;20433;-54
2022/03/17 10:42:13;;;;;;;0.40;0.40;;;;;;;13.68;43.72;96103.81;5134348;27;20430;-51
2022/03/17 10:44:46;;;;;;;0.40;0.30;;;;;;;13.73;43.21;96103.00;5134209;27;20505;-51
2022/03/17 10:47:14;;;;;;;0.40;0.30;;;;;;;13.44;42.95;96102.75;5133356;27;20466;-51
2022/03/17 10:50:00;;;;;;;0.40;0.30;;;;;;;13.50;43.77;96100.91;5134239;27;21037;-51
2022/03/17 10:52:46;;;;;;;0.40;0.30;;;;;;;13.45;45.16;96104.38;5133005;27;20435;-51
2022/03/17 10:55:16;;;;;;;0.40;0.30;;;;;;;13.02;47.22;96100.34;5133900;27;20434;-50
2022/03/17 10:57:44;;;;;;;0.53;0.50;;;;;;;12.29;50.84;96120.13;5133843;27;20879;-50
2022/03/17 11:00:21;;;;;;;0.63;0.63;;;;;;;11.89;54.05;96112.75;5134242;27;20797;-50
2022/03/17 11:02:51;;;;;;;0.40;0.30;;;;;;;11.97;58.97;96111.44;5134039;27;20435;-50
2022/03/17 11:05:21;;;;;;;0.77;0.77;;;;;;;11.90;60.46;96122.31;5133632;27;20421;-50
2022/03/17 11:07:53;;;;;;;0.40;0.30;;;;;;;11.91;61.57;96117.81;5133427;27;21033;-50
2022/03/17 11:10:23;;;;;;;5.13;0.70;;;;;;;11.62;64.00;96129.81;5133724;27;20863;-50
2022/03/17 11:12:53;;;;;;;0.30;0.30;;;;;;;11.65;62.91;96130.09;5132772;27;20415;-50
2022/03/17 11:15:28;;;;;;;0.53;0.50;;;;;;;11.73;64.28;96131.50;5133385;27;20507;-50
2022/03/17 11:18:03;;;;;;;0.40;0.40;;;;;;;11.60;64.34;96134.56;5132947;27;20514;-50
2022/03/17 11:20:33;;;;;;;0.43;0.40;;;;;;;11.49;63.87;96136.34;5132534;27;20487;-50
2022/03/17 11:23:10;;;;;;;1.87;0.50;;;;;;;11.48;66.57;96135.53;5132808;27;20458;-50
2022/03/17 11:25:39;;;;;;;2.00;1.53;;;;;;;11.42;67.77;96133.94;5133576;27;20438;-50
2022/03/17 11:28:11;;;;;;;5.10;0.43;;;;;;;11.89;62.54;96122.59;5133380;27;20902;-50
2022/03/17 11:30:44;;;;;;;0.40;0.30;;;;;;;11.85;63.40;96137.44;5133102;27;20480;-51
2022/03/17 11:33:31;;;;;;;0.30;0.30;;;;;;;11.77;62.47;96137.91;5133441;27;20790;-50
2022/03/17 11:36:01;;;;;;;0.50;0.50;;;;;;;11.42;63.56;96141.91;5133003;27;20561;-50
2022/03/17 11:38:37;;;;;;;3.63;0.60;;;;;;;10.87;66.80;96146.72;5133409;27;20925;-51
2022/03/17 11:41:13;;;;;;;0.40;0.40;;;;;;;11.17;67.36;96123.13;5132482;27;20938;-50
2022/03/17 11:43:59;;;;;;;0.40;0.40;;;;;;;11.38;68.81;96140.00;5132613;27;20509;-51
2022/03/17 11:46:37;;;;;;;0.70;0.60;;;;;;;10.87;74.40;96144.06;5132939;27;20870;-51
2022/03/17 11:49:24;;;;;;;0.60;0.60;;;;;;;9.98;87.32;96154.13;5133472;27;20467;-52
2022/03/17 11:52:01;;;;;;;0.40;0.30;;;;;;;9.89;92.03;96183.91;5132795;27;20422;-51
2022/03/17 11:54:32;;;;;;;0.40;0.30;;;;;;;10.06;95.49;96143.13;5133102;27;20430;-52
2022/03/17 11:57:04;;;;;;;0.73;0.63;;;;;;;9.97;98.78;96155.16;5132713;27;20492;-52
2022/03/17 11:59:55;;;;;;;0.40;0.30;;;;;;;9.85;96.44;96159.75;5132562;27;20521;-51
2022/03/17 12:02:30;;;;;;;0.40;0.40;;;;;;;9.84;96.21;96166.09;5127394;27;20526;-51
2022/03/17 12:05:12;;;;;;;1.23;0.60;;;;;;;9.57;100.00;96130.75;5133025;27;20419;-51